sensor_id;sensor_type;location;lat;lon;timestamp;P1;durP1;ratioP1;P2;durP2;ratioP2
74519;SDS011;63002;48.134;-1.948;2024-02-15T06:02:10;2.72;;;0.65;;
74519;SDS011;63002;48.134;-1.948;2024-02-15T06:04:36;3.45;;;0.80;;
74519;SDS011;63002;48.134;-1.948;2024-02-15T06:07:02;2.03;;;0.65;;
74519;SDS011;63002;48.134;-1.948;2024-02-15T06:09:28;3.20;;;0.87;;
74519;SDS011;63002;48.134;-1.948;2024-02-15T06:11:55;2.20;;;0.75;;
74519;SDS011;63002;48.134;-1.948;2024-02-15T06:14:21;2.42;;;0.70;;
74519;SDS011;63002;48.134;-1.948;2024-02-15T06:16:47;8.47;;;1.40;;
74519;SDS011;63002;48.134;-1.948;2024-02-15T06:19:14;3.40;;;0.88;;
74519;SDS011;63002;48.134;-1.948;2024-02-15T06:21:39;4.00;;;1.15;;
74519;SDS011;63002;48.134;-1.948;2024-02-15T06:24:05;5.68;;;1.00;;
74519;SDS011;63002;48.134;-1.948;2024-02-15T06:26:31;20.67;;;3.43;;
74519;SDS011;63002;48.134;-1.948;2024-02-15T06:28:59;16.52;;;3.50;;
74519;SDS011;63002;48.134;-1.948;2024-02-15T06:31:44;20.75;;;3.70;;
74519;SDS011;63002;48.134;-1.948;2024-02-15T06:34:28;15.15;;;2.83;;
74519;SDS011;63002;48.134;-1.948;2024-02-15T06:37:17;15.10;;;2.90;;
74519;SDS011;63002;48.134;-1.948;2024-02-15T06:40:20;10.40;;;2.43;;
74519;SDS011;63002;48.134;-1.948;2024-02-15T06:42:46;14.30;;;2.65;;
74519;SDS011;63002;48.134;-1.948;2024-02-15T06:45:11;12.70;;;2.58;;
74519;SDS011;63002;48.134;-1.948;2024-02-15T06:47:41;14.25;;;2.60;;
74519;SDS011;63002;48.134;-1.948;2024-02-15T06:50:10;6.40;;;1.73;;
74519;SDS011;63002;48.134;-1.948;2024-02-15T06:52:37;11.57;;;2.20;;
74519;SDS011;63002;48.134;-1.948;2024-02-15T06:55:03;10.73;;;2.35;;
74519;SDS011;63002;48.134;-1.948;2024-02-15T06:57:33;11.48;;;1.75;;
74519;SDS011;63002;48.134;-1.948;2024-02-15T07:00:02;8.23;;;2.05;;
74519;SDS011;63002;48.134;-1.948;2024-02-15T07:02:33;8.13;;;1.77;;
74519;SDS011;63002;48.134;-1.948;2024-02-15T07:04:58;9.43;;;1.90;;
74519;SDS011;63002;48.134;-1.948;2024-02-15T07:07:24;8.15;;;1.67;;
74519;SDS011;63002;48.134;-1.948;2024-02-15T07:09:50;8.38;;;1.83;;
74519;SDS011;63002;48.134;-1.948;2024-02-15T07:12:16;6.83;;;1.60;;
74519;SDS011;63002;48.134;-1.948;2024-02-15T07:14:44;9.77;;;2.03;;
74519;SDS011;63002;48.134;-1.948;2024-02-15T07:17:11;9.32;;;1.80;;
74519;SDS011;63002;48.134;-1.948;2024-02-15T07:19:36;7.67;;;1.77;;
74519;SDS011;63002;48.134;-1.948;2024-02-15T07:22:03;9.68;;;1.58;;
74519;SDS011;63002;48.134;-1.948;2024-02-15T07:24:29;7.78;;;1.67;;
74519;SDS011;63002;48.134;-1.948;2024-02-15T07:26:54;7.30;;;1.70;;
74519;SDS011;63002;48.134;-1.948;2024-02-15T07:29:21;9.82;;;1.70;;
74519;SDS011;63002;48.134;-1.948;2024-02-15T07:31:48;7.80;;;1.80;;
74519;SDS011;63002;48.134;-1.948;2024-02-15T07:34:14;7.57;;;1.40;;
74519;SDS011;63002;48.134;-1.948;2024-02-15T07:36:41;7.25;;;1.77;;
74519;SDS011;63002;48.134;-1.948;2024-02-15T07:39:08;8.43;;;1.80;;
74519;SDS011;63002;48.134;-1.948;2024-02-15T07:41:37;9.98;;;1.73;;
74519;SDS011;63002;48.134;-1.948;2024-02-15T07:44:03;9.95;;;2.40;;
74519;SDS011;63002;48.134;-1.948;2024-02-15T07:46:29;9.15;;;1.70;;
74519;SDS011;63002;48.134;-1.948;2024-02-15T07:48:55;8.43;;;1.85;;
74519;SDS011;63002;48.134;-1.948;2024-02-15T07:51:22;7.35;;;1.45;;
74519;SDS011;63002;48.134;-1.948;2024-02-15T07:53:48;7.47;;;1.63;;
74519;SDS011;63002;48.134;-1.948;2024-02-15T07:56:15;8.30;;;1.70;;
74519;SDS011;63002;48.134;-1.948;2024-02-15T07:58:44;6.90;;;1.67;;
74519;SDS011;63002;48.134;-1.948;2024-02-15T08:01:15;7.20;;;1.88;;
74519;SDS011;63002;48.134;-1.948;2024-02-15T08:03:41;8.70;;;1.92;;
74519;SDS011;63002;48.134;-1.948;2024-02-15T08:06:11;8.57;;;1.90;;
74519;SDS011;63002;48.134;-1.948;2024-02-15T08:08:41;8.23;;;1.60;;
74519;SDS011;63002;48.134;-1.948;2024-02-15T08:11:10;6.60;;;1.58;;
74519;SDS011;63002;48.134;-1.948;2024-02-15T08:14:00;11.00;;;1.90;;
74519;SDS011;63002;48.134;-1.948;2024-02-15T08:16:25;9.65;;;2.00;;
74519;SDS011;63002;48.134;-1.948;2024-02-15T08:18:54;7.28;;;1.73;;
74519;SDS011;63002;48.134;-1.948;2024-02-15T08:21:26;6.40;;;1.55;;
74519;SDS011;63002;48.134;-1.948;2024-02-15T08:24:00;8.45;;;1.60;;
74519;SDS011;63002;48.134;-1.948;2024-02-15T08:26:38;8.45;;;1.65;;
74519;SDS011;63002;48.134;-1.948;2024-02-15T08:29:04;6.60;;;1.47;;
74519;SDS011;63002;48.134;-1.948;2024-02-15T08:31:34;8.70;;;1.60;;
74519;SDS011;63002;48.134;-1.948;2024-02-15T08:34:03;10.02;;;2.10;;
74519;SDS011;63002;48.134;-1.948;2024-02-15T08:36:35;7.45;;;1.63;;
74519;SDS011;63002;48.134;-1.948;2024-02-15T08:39:01;6.68;;;1.50;;
74519;SDS011;63002;48.134;-1.948;2024-02-15T08:41:29;7.03;;;1.63;;
74519;SDS011;63002;48.134;-1.948;2024-02-15T08:43:54;8.43;;;1.50;;
74519;SDS011;63002;48.134;-1.948;2024-02-15T08:46:25;7.30;;;1.40;;
74519;SDS011;63002;48.134;-1.948;2024-02-15T08:48:52;12.15;;;1.92;;
74519;SDS011;63002;48.134;-1.948;2024-02-15T08:51:18;7.45;;;1.70;;
74519;SDS011;63002;48.134;-1.948;2024-02-15T08:53:45;7.00;;;1.63;;
74519;SDS011;63002;48.134;-1.948;2024-02-15T08:56:11;7.68;;;1.65;;
74519;SDS011;63002;48.134;-1.948;2024-02-15T08:58:37;7.03;;;1.33;;
74519;SDS011;63002;48.134;-1.948;2024-02-15T09:01:04;6.10;;;1.70;;
74519;SDS011;63002;48.134;-1.948;2024-02-15T09:03:32;5.82;;;1.55;;
74519;SDS011;63002;48.134;-1.948;2024-02-15T09:05:58;5.97;;;1.20;;
74519;SDS011;63002;48.134;-1.948;2024-02-15T09:08:28;8.43;;;1.52;;
74519;SDS011;63002;48.134;-1.948;2024-02-15T09:10:55;8.45;;;1.60;;
74519;SDS011;63002;48.134;-1.948;2024-02-15T09:13:23;6.70;;;1.30;;
74519;SDS011;63002;48.134;-1.948;2024-02-15T09:15:49;5.63;;;1.37;;
74519;SDS011;63002;48.134;-1.948;2024-02-15T09:18:15;7.85;;;1.50;;
74519;SDS011;63002;48.134;-1.948;2024-02-15T09:20:43;5.75;;;1.35;;
74519;SDS011;63002;48.134;-1.948;2024-02-15T09:23:12;6.78;;;1.17;;
74519;SDS011;63002;48.134;-1.948;2024-02-15T09:25:39;5.28;;;1.38;;
74519;SDS011;63002;48.134;-1.948;2024-02-15T09:28:07;4.32;;;1.08;;
74519;SDS011;63002;48.134;-1.948;2024-02-15T09:30:33;7.32;;;1.60;;
74519;SDS011;63002;48.134;-1.948;2024-02-15T09:33:00;6.60;;;1.60;;
74519;SDS011;63002;48.134;-1.948;2024-02-15T09:35:29;5.90;;;1.57;;
74519;SDS011;63002;48.134;-1.948;2024-02-15T09:37:55;6.05;;;1.58;;
74519;SDS011;63002;48.134;-1.948;2024-02-15T09:40:21;6.50;;;1.48;;
74519;SDS011;63002;48.134;-1.948;2024-02-15T09:42:51;4.78;;;1.17;;
74519;SDS011;63002;48.134;-1.948;2024-02-15T09:45:26;6.38;;;1.30;;
74519;SDS011;63002;48.134;-1.948;2024-02-15T09:47:52;8.03;;;1.43;;
74519;SDS011;63002;48.134;-1.948;2024-02-15T09:50:19;5.35;;;1.20;;
74519;SDS011;63002;48.134;-1.948;2024-02-15T09:52:50;5.85;;;1.40;;
74519;SDS011;63002;48.134;-1.948;2024-02-15T09:55:16;6.80;;;1.10;;
74519;SDS011;63002;48.134;-1.948;2024-02-15T09:57:43;4.97;;;1.20;;
74519;SDS011;63002;48.134;-1.948;2024-02-15T10:00:11;7.33;;;1.20;;
74519;SDS011;63002;48.134;-1.948;2024-02-15T10:02:42;5.75;;;1.17;;
74519;SDS011;63002;48.134;-1.948;2024-02-15T10:05:09;5.85;;;1.40;;
74519;SDS011;63002;48.134;-1.948;2024-02-15T10:07:39;4.35;;;1.00;;
74519;SDS011;63002;48.134;-1.948;2024-02-15T10:10:29;5.22;;;1.55;;
74519;SDS011;63002;48.134;-1.948;2024-02-15T10:12:55;4.97;;;1.37;;
74519;SDS011;63002;48.134;-1.948;2024-02-15T10:15:27;5.97;;;1.13;;
74519;SDS011;63002;48.134;-1.948;2024-02-15T10:17:56;5.82;;;1.42;;
74519;SDS011;63002;48.134;-1.948;2024-02-15T10:20:24;6.13;;;1.55;;
74519;SDS011;63002;48.134;-1.948;2024-02-15T10:25:29;4.90;;;1.23;;
74519;SDS011;63002;48.134;-1.948;2024-02-15T10:30:36;5.10;;;1.20;;
74519;SDS011;63002;48.134;-1.948;2024-02-15T10:33:04;5.32;;;1.10;;
74519;SDS011;63002;48.134;-1.948;2024-02-15T10:35:31;6.13;;;1.37;;
74519;SDS011;63002;48.134;-1.948;2024-02-15T10:38:06;4.28;;;0.93;;
74519;SDS011;63002;48.134;-1.948;2024-02-15T10:40:33;5.72;;;1.15;;
74519;SDS011;63002;48.134;-1.948;2024-02-15T10:42:59;3.53;;;1.20;;
74519;SDS011;63002;48.134;-1.948;2024-02-15T10:45:27;7.93;;;1.13;;
74519;SDS011;63002;48.134;-1.948;2024-02-15T10:47:55;5.13;;;0.80;;
74519;SDS011;63002;48.134;-1.948;2024-02-15T10:50:22;6.53;;;1.05;;
74519;SDS011;63002;48.134;-1.948;2024-02-15T10:52:53;5.50;;;1.02;;
74519;SDS011;63002;48.134;-1.948;2024-02-15T10:58:08;3.63;;;0.88;;
74519;SDS011;63002;48.134;-1.948;2024-02-15T11:00:38;3.60;;;0.83;;
74519;SDS011;63002;48.134;-1.948;2024-02-15T11:03:09;3.95;;;0.98;;
74519;SDS011;63002;48.134;-1.948;2024-02-15T11:05:39;3.67;;;0.90;;
74519;SDS011;63002;48.134;-1.948;2024-02-15T11:08:08;3.75;;;1.00;;
74519;SDS011;63002;48.134;-1.948;2024-02-15T11:10:37;4.93;;;1.00;;
74519;SDS011;63002;48.134;-1.948;2024-02-15T11:13:08;5.60;;;1.10;;
74519;SDS011;63002;48.134;-1.948;2024-02-15T11:18:01;7.22;;;1.00;;
74519;SDS011;63002;48.134;-1.948;2024-02-15T11:23:04;2.65;;;0.68;;
74519;SDS011;63002;48.134;-1.948;2024-02-15T11:25:36;4.68;;;0.80;;
74519;SDS011;63002;48.134;-1.948;2024-02-15T11:30:49;4.20;;;0.93;;
74519;SDS011;63002;48.134;-1.948;2024-02-15T11:36:06;3.13;;;0.80;;
74519;SDS011;63002;48.134;-1.948;2024-02-15T11:38:33;3.65;;;1.00;;
74519;SDS011;63002;48.134;-1.948;2024-02-15T11:46:23;4.03;;;0.83;;
74519;SDS011;63002;48.134;-1.948;2024-02-15T11:48:50;3.58;;;0.90;;
74519;SDS011;63002;48.134;-1.948;2024-02-15T11:51:28;2.83;;;0.73;;
74519;SDS011;63002;48.134;-1.948;2024-02-15T11:54:05;4.50;;;0.90;;
74519;SDS011;63002;48.134;-1.948;2024-02-15T11:56:49;2.83;;;1.00;;
74519;SDS011;63002;48.134;-1.948;2024-02-15T11:59:38;4.00;;;0.90;;
74519;SDS011;63002;48.134;-1.948;2024-02-15T12:02:18;2.35;;;0.60;;
74519;SDS011;63002;48.134;-1.948;2024-02-15T12:05:03;2.47;;;0.80;;
74519;SDS011;63002;48.134;-1.948;2024-02-15T12:07:48;3.40;;;0.85;;
74519;SDS011;63002;48.134;-1.948;2024-02-15T12:10:32;3.13;;;0.90;;
74519;SDS011;63002;48.134;-1.948;2024-02-15T12:13:19;2.77;;;0.63;;
74519;SDS011;63002;48.134;-1.948;2024-02-15T12:16:03;3.15;;;0.70;;
74519;SDS011;63002;48.134;-1.948;2024-02-15T12:18:48;2.95;;;0.77;;
74519;SDS011;63002;48.134;-1.948;2024-02-15T12:21:18;2.70;;;0.73;;
74519;SDS011;63002;48.134;-1.948;2024-02-15T12:23:48;5.07;;;0.93;;
74519;SDS011;63002;48.134;-1.948;2024-02-15T12:26:18;3.37;;;0.80;;
74519;SDS011;63002;48.134;-1.948;2024-02-15T12:28:44;2.58;;;0.57;;
74519;SDS011;63002;48.134;-1.948;2024-02-15T12:31:21;3.90;;;1.00;;
74519;SDS011;63002;48.134;-1.948;2024-02-15T12:33:59;3.60;;;0.75;;
74519;SDS011;63002;48.134;-1.948;2024-02-15T12:36:34;3.30;;;0.88;;
74519;SDS011;63002;48.134;-1.948;2024-02-15T12:39:03;2.37;;;0.60;;
74519;SDS011;63002;48.134;-1.948;2024-02-15T12:41:47;3.38;;;0.70;;
74519;SDS011;63002;48.134;-1.948;2024-02-15T12:44:18;3.72;;;0.90;;
74519;SDS011;63002;48.134;-1.948;2024-02-15T12:46:53;3.25;;;0.70;;
74519;SDS011;63002;48.134;-1.948;2024-02-15T12:51:52;3.77;;;0.70;;
74519;SDS011;63002;48.134;-1.948;2024-02-15T12:54:38;2.10;;;0.65;;
74519;SDS011;63002;48.134;-1.948;2024-02-15T12:57:08;4.13;;;0.82;;
74519;SDS011;63002;48.134;-1.948;2024-02-15T12:59:39;2.97;;;0.60;;
74519;SDS011;63002;48.134;-1.948;2024-02-15T13:02:04;2.43;;;0.73;;
74519;SDS011;63002;48.134;-1.948;2024-02-15T13:04:30;2.38;;;0.70;;
74519;SDS011;63002;48.134;-1.948;2024-02-15T13:06:56;2.17;;;0.63;;
74519;SDS011;63002;48.134;-1.948;2024-02-15T13:09:21;3.33;;;1.05;;
74519;SDS011;63002;48.134;-1.948;2024-02-15T13:11:48;2.40;;;0.65;;
74519;SDS011;63002;48.134;-1.948;2024-02-15T13:14:15;2.75;;;0.70;;
74519;SDS011;63002;48.134;-1.948;2024-02-15T13:16:41;3.35;;;0.77;;
74519;SDS011;63002;48.134;-1.948;2024-02-15T13:19:08;3.90;;;0.85;;
74519;SDS011;63002;48.134;-1.948;2024-02-15T13:21:34;4.10;;;0.87;;
74519;SDS011;63002;48.134;-1.948;2024-02-15T13:24:00;2.40;;;0.60;;
74519;SDS011;63002;48.134;-1.948;2024-02-15T13:26:30;2.58;;;0.60;;
74519;SDS011;63002;48.134;-1.948;2024-02-15T13:28:57;2.15;;;0.65;;
74519;SDS011;63002;48.134;-1.948;2024-02-15T13:31:23;2.97;;;0.52;;
74519;SDS011;63002;48.134;-1.948;2024-02-15T13:33:49;1.33;;;0.50;;
74519;SDS011;63002;48.134;-1.948;2024-02-15T13:36:14;3.03;;;0.60;;
74519;SDS011;63002;48.134;-1.948;2024-02-15T13:38:41;2.70;;;0.73;;
74519;SDS011;63002;48.134;-1.948;2024-02-15T13:41:07;2.25;;;0.50;;
74519;SDS011;63002;48.134;-1.948;2024-02-15T13:43:34;3.70;;;0.93;;
74519;SDS011;63002;48.134;-1.948;2024-02-15T13:46:00;1.55;;;0.50;;
74519;SDS011;63002;48.134;-1.948;2024-02-15T13:48:29;1.92;;;0.68;;
74519;SDS011;63002;48.134;-1.948;2024-02-15T13:50:56;4.07;;;0.82;;
74519;SDS011;63002;48.134;-1.948;2024-02-15T13:53:23;3.05;;;0.80;;
74519;SDS011;63002;48.134;-1.948;2024-02-15T13:55:50;3.97;;;0.98;;
74519;SDS011;63002;48.134;-1.948;2024-02-15T13:58:17;2.83;;;0.82;;
74519;SDS011;63002;48.134;-1.948;2024-02-15T14:00:43;4.13;;;0.80;;
74519;SDS011;63002;48.134;-1.948;2024-02-15T14:03:10;2.67;;;0.73;;
74519;SDS011;63002;48.134;-1.948;2024-02-15T14:05:36;3.40;;;0.70;;
74519;SDS011;63002;48.134;-1.948;2024-02-15T14:08:05;3.38;;;0.63;;
74519;SDS011;63002;48.134;-1.948;2024-02-15T14:10:31;2.43;;;0.63;;
74519;SDS011;63002;48.134;-1.948;2024-02-15T14:13:00;2.33;;;0.80;;
74519;SDS011;63002;48.134;-1.948;2024-02-15T14:15:30;2.60;;;0.93;;
74519;SDS011;63002;48.134;-1.948;2024-02-15T14:18:02;2.13;;;0.52;;
74519;SDS011;63002;48.134;-1.948;2024-02-15T14:20:31;2.92;;;0.75;;
74519;SDS011;63002;48.134;-1.948;2024-02-15T14:22:57;2.60;;;0.60;;
74519;SDS011;63002;48.134;-1.948;2024-02-15T14:25:28;2.28;;;0.70;;
74519;SDS011;63002;48.134;-1.948;2024-02-15T14:27:56;3.50;;;0.90;;
74519;SDS011;63002;48.134;-1.948;2024-02-15T14:30:23;3.15;;;0.70;;
74519;SDS011;63002;48.134;-1.948;2024-02-15T14:33:07;2.80;;;0.70;;
74519;SDS011;63002;48.134;-1.948;2024-02-15T14:35:36;3.30;;;0.60;;
74519;SDS011;63002;48.134;-1.948;2024-02-15T14:38:04;3.10;;;0.82;;
74519;SDS011;63002;48.134;-1.948;2024-02-15T14:40:33;2.75;;;0.70;;
74519;SDS011;63002;48.134;-1.948;2024-02-15T14:43:00;2.65;;;0.70;;
74519;SDS011;63002;48.134;-1.948;2024-02-15T14:45:26;3.13;;;0.70;;
74519;SDS011;63002;48.134;-1.948;2024-02-15T14:47:53;2.47;;;0.80;;
74519;SDS011;63002;48.134;-1.948;2024-02-15T14:50:18;2.70;;;0.80;;
74519;SDS011;63002;48.134;-1.948;2024-02-15T14:52:46;2.80;;;0.80;;
74519;SDS011;63002;48.134;-1.948;2024-02-15T14:55:13;1.70;;;0.50;;
74519;SDS011;63002;48.134;-1.948;2024-02-15T14:57:38;3.33;;;0.70;;
74519;SDS011;63002;48.134;-1.948;2024-02-15T15:00:05;2.80;;;0.80;;
74519;SDS011;63002;48.134;-1.948;2024-02-15T15:02:39;2.10;;;0.50;;
74519;SDS011;63002;48.134;-1.948;2024-02-15T15:05:08;2.10;;;0.57;;
74519;SDS011;63002;48.134;-1.948;2024-02-15T15:07:53;2.78;;;0.75;;
74519;SDS011;63002;48.134;-1.948;2024-02-15T15:10:37;2.83;;;0.90;;
74519;SDS011;63002;48.134;-1.948;2024-02-15T15:13:21;3.50;;;0.60;;
74519;SDS011;63002;48.134;-1.948;2024-02-15T15:15:48;2.10;;;0.57;;
74519;SDS011;63002;48.134;-1.948;2024-02-15T15:18:14;2.95;;;0.70;;
74519;SDS011;63002;48.134;-1.948;2024-02-15T15:20:39;2.03;;;0.80;;
74519;SDS011;63002;48.134;-1.948;2024-02-15T15:23:05;2.00;;;0.60;;
74519;SDS011;63002;48.134;-1.948;2024-02-15T15:25:32;2.90;;;0.70;;
74519;SDS011;63002;48.134;-1.948;2024-02-15T15:27:59;2.37;;;0.60;;
74519;SDS011;63002;48.134;-1.948;2024-02-15T15:30:24;2.63;;;1.02;;
74519;SDS011;63002;48.134;-1.948;2024-02-15T15:32:50;2.13;;;0.60;;
74519;SDS011;63002;48.134;-1.948;2024-02-15T15:35:16;2.70;;;0.60;;
74519;SDS011;63002;48.134;-1.948;2024-02-15T15:37:43;2.97;;;0.65;;
74519;SDS011;63002;48.134;-1.948;2024-02-15T15:40:12;2.60;;;0.73;;
74519;SDS011;63002;48.134;-1.948;2024-02-15T15:42:41;1.60;;;0.47;;
74519;SDS011;63002;48.134;-1.948;2024-02-15T15:45:08;2.15;;;0.47;;
74519;SDS011;63002;48.134;-1.948;2024-02-15T15:47:36;3.20;;;0.80;;
74519;SDS011;63002;48.134;-1.948;2024-02-15T15:50:04;2.58;;;0.80;;
74519;SDS011;63002;48.134;-1.948;2024-02-15T15:52:31;1.83;;;0.50;;
74519;SDS011;63002;48.134;-1.948;2024-02-15T15:54:58;2.38;;;0.70;;
74519;SDS011;63002;48.134;-1.948;2024-02-15T15:57:24;2.83;;;0.60;;
74519;SDS011;63002;48.134;-1.948;2024-02-15T15:59:50;2.10;;;0.70;;
74519;SDS011;63002;48.134;-1.948;2024-02-15T16:02:16;2.35;;;0.68;;
74519;SDS011;63002;48.134;-1.948;2024-02-15T16:04:45;2.67;;;0.60;;
74519;SDS011;63002;48.134;-1.948;2024-02-15T16:07:12;3.08;;;0.70;;
74519;SDS011;63002;48.134;-1.948;2024-02-15T16:09:39;2.97;;;0.55;;
74519;SDS011;63002;48.134;-1.948;2024-02-15T16:12:11;2.53;;;0.73;;
74519;SDS011;63002;48.134;-1.948;2024-02-15T16:14:44;2.17;;;0.60;;
74519;SDS011;63002;48.134;-1.948;2024-02-15T16:17:12;3.33;;;0.70;;
74519;SDS011;63002;48.134;-1.948;2024-02-15T16:19:38;2.53;;;0.63;;
74519;SDS011;63002;48.134;-1.948;2024-02-15T16:22:04;2.10;;;0.70;;
74519;SDS011;63002;48.134;-1.948;2024-02-15T16:24:31;3.53;;;0.70;;
74519;SDS011;63002;48.134;-1.948;2024-02-15T16:26:57;2.42;;;0.60;;
74519;SDS011;63002;48.134;-1.948;2024-02-15T16:29:23;2.53;;;0.88;;
74519;SDS011;63002;48.134;-1.948;2024-02-15T16:31:49;3.23;;;1.00;;
74519;SDS011;63002;48.134;-1.948;2024-02-15T16:34:21;3.13;;;0.88;;
74519;SDS011;63002;48.134;-1.948;2024-02-15T16:36:47;4.03;;;0.70;;
74519;SDS011;63002;48.134;-1.948;2024-02-15T16:39:16;3.58;;;0.88;;
74519;SDS011;63002;48.134;-1.948;2024-02-15T16:41:47;2.85;;;0.80;;
74519;SDS011;63002;48.134;-1.948;2024-02-15T16:44:14;3.70;;;0.80;;
74519;SDS011;63002;48.134;-1.948;2024-02-15T16:46:41;3.08;;;0.90;;
74519;SDS011;63002;48.134;-1.948;2024-02-15T16:49:07;2.60;;;0.65;;
74519;SDS011;63002;48.134;-1.948;2024-02-15T16:51:34;3.92;;;0.82;;
74519;SDS011;63002;48.134;-1.948;2024-02-15T16:53:59;3.30;;;1.00;;
74519;SDS011;63002;48.134;-1.948;2024-02-15T16:56:27;3.03;;;0.80;;
74519;SDS011;63002;48.134;-1.948;2024-02-15T16:58:55;3.72;;;1.00;;
74519;SDS011;63002;48.134;-1.948;2024-02-15T17:01:24;4.45;;;1.00;;
74519;SDS011;63002;48.134;-1.948;2024-02-15T17:03:51;2.95;;;0.93;;
74519;SDS011;63002;48.134;-1.948;2024-02-15T17:06:18;3.80;;;0.90;;
74519;SDS011;63002;48.134;-1.948;2024-02-15T17:08:45;3.95;;;0.95;;
74519;SDS011;63002;48.134;-1.948;2024-02-15T17:11:13;4.43;;;1.27;;
74519;SDS011;63002;48.134;-1.948;2024-02-15T17:13:39;6.18;;;1.00;;
74519;SDS011;63002;48.134;-1.948;2024-02-15T17:16:09;3.40;;;0.80;;
74519;SDS011;63002;48.134;-1.948;2024-02-15T17:18:35;7.90;;;1.00;;
74519;SDS011;63002;48.134;-1.948;2024-02-15T17:21:03;3.53;;;1.00;;
74519;SDS011;63002;48.134;-1.948;2024-02-15T17:23:32;3.58;;;0.70;;
74519;SDS011;63002;48.134;-1.948;2024-02-15T17:25:58;4.93;;;0.98;;
74519;SDS011;63002;48.134;-1.948;2024-02-15T17:28:24;3.65;;;0.70;;
74519;SDS011;63002;48.134;-1.948;2024-02-15T17:30:52;5.88;;;0.90;;
74519;SDS011;63002;48.134;-1.948;2024-02-15T17:33:18;3.97;;;0.82;;
74519;SDS011;63002;48.134;-1.948;2024-02-15T17:35:47;4.77;;;0.90;;
74519;SDS011;63002;48.134;-1.948;2024-02-15T17:38:16;6.35;;;1.30;;
74519;SDS011;63002;48.134;-1.948;2024-02-15T17:40:42;6.28;;;1.20;;
74519;SDS011;63002;48.134;-1.948;2024-02-15T17:43:08;4.17;;;1.03;;
74519;SDS011;63002;48.134;-1.948;2024-02-15T17:45:34;5.32;;;1.35;;
74519;SDS011;63002;48.134;-1.948;2024-02-15T17:48:01;3.75;;;1.10;;
74519;SDS011;63002;48.134;-1.948;2024-02-15T17:50:26;3.63;;;0.90;;
74519;SDS011;63002;48.134;-1.948;2024-02-15T17:52:52;4.80;;;1.10;;
74519;SDS011;63002;48.134;-1.948;2024-02-15T17:55:18;4.88;;;1.20;;
74519;SDS011;63002;48.134;-1.948;2024-02-15T17:57:47;3.83;;;1.07;;
74519;SDS011;63002;48.134;-1.948;2024-02-15T18:00:13;3.58;;;1.15;;
74519;SDS011;63002;48.134;-1.948;2024-02-15T18:02:41;9.63;;;0.90;;
74519;SDS011;63002;48.134;-1.948;2024-02-15T18:05:11;5.35;;;1.10;;
74519;SDS011;63002;48.134;-1.948;2024-02-15T18:07:37;5.40;;;1.17;;
74519;SDS011;63002;48.134;-1.948;2024-02-15T18:10:03;7.15;;;1.00;;
74519;SDS011;63002;48.134;-1.948;2024-02-15T18:12:33;3.33;;;0.82;;
74519;SDS011;63002;48.134;-1.948;2024-02-15T18:14:59;2.65;;;0.70;;
74519;SDS011;63002;48.134;-1.948;2024-02-15T18:17:25;6.15;;;1.27;;
74519;SDS011;63002;48.134;-1.948;2024-02-15T18:19:51;5.25;;;1.23;;
74519;SDS011;63002;48.134;-1.948;2024-02-15T18:22:18;4.40;;;1.10;;
74519;SDS011;63002;48.134;-1.948;2024-02-15T18:24:43;3.10;;;0.70;;
74519;SDS011;63002;48.134;-1.948;2024-02-15T18:27:10;3.50;;;0.85;;
74519;SDS011;63002;48.134;-1.948;2024-02-15T18:29:44;5.68;;;0.98;;
74519;SDS011;63002;48.134;-1.948;2024-02-15T18:32:10;6.40;;;1.48;;
74519;SDS011;63002;48.134;-1.948;2024-02-15T18:34:36;3.53;;;1.00;;
74519;SDS011;63002;48.134;-1.948;2024-02-15T18:37:02;4.45;;;1.10;;
74519;SDS011;63002;48.134;-1.948;2024-02-15T18:39:28;5.30;;;1.27;;
74519;SDS011;63002;48.134;-1.948;2024-02-15T18:41:55;5.65;;;1.40;;
74519;SDS011;63002;48.134;-1.948;2024-02-15T18:44:21;5.63;;;1.30;;
74519;SDS011;63002;48.134;-1.948;2024-02-15T18:46:48;5.63;;;1.23;;
74519;SDS011;63002;48.134;-1.948;2024-02-15T18:49:15;6.33;;;1.57;;
74519;SDS011;63002;48.134;-1.948;2024-02-15T18:51:40;5.80;;;1.50;;
74519;SDS011;63002;48.134;-1.948;2024-02-15T18:54:08;5.57;;;1.58;;
74519;SDS011;63002;48.134;-1.948;2024-02-15T18:56:33;8.73;;;1.77;;
74519;SDS011;63002;48.134;-1.948;2024-02-15T18:58:59;5.95;;;1.70;;
74519;SDS011;63002;48.134;-1.948;2024-02-15T19:01:30;5.82;;;1.83;;
74519;SDS011;63002;48.134;-1.948;2024-02-15T19:03:57;4.72;;;1.33;;
74519;SDS011;63002;48.134;-1.948;2024-02-15T19:06:23;6.32;;;1.58;;
74519;SDS011;63002;48.134;-1.948;2024-02-15T19:08:50;6.22;;;1.45;;
74519;SDS011;63002;48.134;-1.948;2024-02-15T19:11:16;7.00;;;1.97;;
74519;SDS011;63002;48.134;-1.948;2024-02-15T19:13:42;5.45;;;1.55;;
74519;SDS011;63002;48.134;-1.948;2024-02-15T19:16:07;5.93;;;1.67;;
74519;SDS011;63002;48.134;-1.948;2024-02-15T19:18:34;7.47;;;2.85;;
74519;SDS011;63002;48.134;-1.948;2024-02-15T19:21:01;12.48;;;3.35;;
74519;SDS011;63002;48.134;-1.948;2024-02-15T19:23:29;13.30;;;4.45;;
74519;SDS011;63002;48.134;-1.948;2024-02-15T19:25:55;19.55;;;6.82;;
74519;SDS011;63002;48.134;-1.948;2024-02-15T19:28:21;19.20;;;6.90;;
74519;SDS011;63002;48.134;-1.948;2024-02-15T19:30:48;22.30;;;8.50;;
74519;SDS011;63002;48.134;-1.948;2024-02-15T19:33:14;23.80;;;9.30;;
74519;SDS011;63002;48.134;-1.948;2024-02-15T19:35:40;21.50;;;9.63;;
74519;SDS011;63002;48.134;-1.948;2024-02-15T19:38:09;22.08;;;9.70;;
74519;SDS011;63002;48.134;-1.948;2024-02-15T19:40:34;34.23;;;14.67;;
74519;SDS011;63002;48.134;-1.948;2024-02-15T19:43:02;36.63;;;15.43;;
74519;SDS011;63002;48.134;-1.948;2024-02-15T19:45:30;36.40;;;15.90;;
74519;SDS011;63002;48.134;-1.948;2024-02-15T19:47:56;41.07;;;18.57;;
74519;SDS011;63002;48.134;-1.948;2024-02-15T19:50:22;47.22;;;18.95;;
74519;SDS011;63002;48.134;-1.948;2024-02-15T19:52:51;47.60;;;22.05;;
74519;SDS011;63002;48.134;-1.948;2024-02-15T19:55:18;40.22;;;20.17;;
74519;SDS011;63002;48.134;-1.948;2024-02-15T19:57:43;53.58;;;24.65;;
74519;SDS011;63002;48.134;-1.948;2024-02-15T20:00:09;57.58;;;28.02;;
74519;SDS011;63002;48.134;-1.948;2024-02-15T20:02:36;60.83;;;29.23;;
74519;SDS011;63002;48.134;-1.948;2024-02-15T20:05:02;67.35;;;33.10;;
74519;SDS011;63002;48.134;-1.948;2024-02-15T20:07:31;69.03;;;33.08;;
74519;SDS011;63002;48.134;-1.948;2024-02-15T20:10:01;67.47;;;31.75;;
74519;SDS011;63002;48.134;-1.948;2024-02-15T20:12:32;59.40;;;31.23;;
74519;SDS011;63002;48.134;-1.948;2024-02-15T20:14:58;55.23;;;28.33;;
74519;SDS011;63002;48.134;-1.948;2024-02-15T20:17:24;56.08;;;29.52;;
74519;SDS011;63002;48.134;-1.948;2024-02-15T20:19:50;77.95;;;42.33;;
74519;SDS011;63002;48.134;-1.948;2024-02-15T20:22:16;97.60;;;49.00;;
74519;SDS011;63002;48.134;-1.948;2024-02-15T20:24:42;119.72;;;61.15;;
74519;SDS011;63002;48.134;-1.948;2024-02-15T20:27:08;116.55;;;59.65;;
74519;SDS011;63002;48.134;-1.948;2024-02-15T20:29:37;40.47;;;23.38;;
74519;SDS011;63002;48.134;-1.948;2024-02-15T20:32:04;91.95;;;46.40;;
74519;SDS011;63002;48.134;-1.948;2024-02-15T20:34:31;92.05;;;47.92;;
74519;SDS011;63002;48.134;-1.948;2024-02-15T20:36:57;90.63;;;47.67;;
74519;SDS011;63002;48.134;-1.948;2024-02-15T20:39:23;78.80;;;43.80;;
74519;SDS011;63002;48.134;-1.948;2024-02-15T20:41:49;93.00;;;48.63;;
74519;SDS011;63002;48.134;-1.948;2024-02-15T20:44:15;93.53;;;45.97;;
74519;SDS011;63002;48.134;-1.948;2024-02-15T20:46:41;87.82;;;46.63;;
74519;SDS011;63002;48.134;-1.948;2024-02-15T20:49:08;81.60;;;46.20;;
74519;SDS011;63002;48.134;-1.948;2024-02-15T20:51:34;86.60;;;45.35;;
74519;SDS011;63002;48.134;-1.948;2024-02-15T20:54:01;74.97;;;41.63;;
74519;SDS011;63002;48.134;-1.948;2024-02-15T20:56:27;77.13;;;42.20;;
74519;SDS011;63002;48.134;-1.948;2024-02-15T20:58:54;81.38;;;42.55;;
74519;SDS011;63002;48.134;-1.948;2024-02-15T21:01:20;76.00;;;42.83;;
74519;SDS011;63002;48.134;-1.948;2024-02-15T21:03:47;76.95;;;42.10;;
74519;SDS011;63002;48.134;-1.948;2024-02-15T21:06:18;73.10;;;39.20;;